createdAt,value
2023-03-14T00:01:54.665Z,12.80
2023-03-14T00:05:00.572Z,11.90
2023-03-14T00:08:06.308Z,11.68
2023-03-14T00:11:14.204Z,11.32
2023-03-14T00:14:19.973Z,12.02
2023-03-14T00:17:25.640Z,12.18
2023-03-14T00:20:31.451Z,12.23
2023-03-14T00:23:39.919Z,10.73
2023-03-14T00:26:45.475Z,12.95
2023-03-14T00:29:51.245Z,12.50
2023-03-14T00:32:57.023Z,11.80
2023-03-14T00:36:11.673Z,11.55
2023-03-14T00:39:17.612Z,10.98
2023-03-14T00:42:23.186Z,11.38
2023-03-14T00:45:29.920Z,11.90
2023-03-14T00:48:36.042Z,9.48
2023-03-14T00:51:42.016Z,10.10
2023-03-14T00:54:47.189Z,9.57
2023-03-14T00:57:52.827Z,9.77
2023-03-14T01:00:58.573Z,10.98
2023-03-14T01:04:04.457Z,9.80
2023-03-14T01:07:10.427Z,10.82
2023-03-14T01:10:18.174Z,9.40
2023-03-14T01:13:23.962Z,9.18
2023-03-14T01:16:32.293Z,8.98
2023-03-14T01:19:40.264Z,10.68
2023-03-14T01:22:46.244Z,11.25
2023-03-14T01:25:51.989Z,10.00
2023-03-14T01:28:59.342Z,9.32
2023-03-14T01:32:06.378Z,10.65
2023-03-14T01:35:12.353Z,10.68
2023-03-14T01:38:18.302Z,9.52
2023-03-14T01:41:26.279Z,10.68
2023-03-14T01:44:52.907Z,10.93
2023-03-14T01:47:58.642Z,10.82
2023-03-14T01:51:07.051Z,10.38
2023-03-14T01:54:16.503Z,9.88
2023-03-14T01:57:46.689Z,10.40
2023-03-14T02:00:52.707Z,9.90
2023-03-14T02:04:03.266Z,10.38
2023-03-14T02:07:17.170Z,10.18
2023-03-14T02:10:42.422Z,10.35
2023-03-14T02:13:50.015Z,10.43
2023-03-14T02:17:08.800Z,10.43
2023-03-14T02:20:45.758Z,9.90
2023-03-14T02:24:05.511Z,10.43
2023-03-14T02:27:20.241Z,9.60
2023-03-14T02:30:32.259Z,11.60
2023-03-14T02:36:45.160Z,11.10
2023-03-14T02:39:51.031Z,10.07
2023-03-14T02:42:57.460Z,10.82
2023-03-14T02:46:05.543Z,10.35
2023-03-14T02:49:16.224Z,10.20
2023-03-14T02:52:21.703Z,12.00
2023-03-14T02:55:27.975Z,12.00
2023-03-14T02:58:38.266Z,10.98
2023-03-14T03:01:57.378Z,11.38
2023-03-14T03:05:06.436Z,10.98
2023-03-14T03:08:12.145Z,10.50
2023-03-14T03:11:17.619Z,11.45
2023-03-14T03:14:23.258Z,12.23
2023-03-14T03:17:30.169Z,12.25
2023-03-14T03:20:36.058Z,12.07
2023-03-14T03:23:41.531Z,11.50
2023-03-14T03:26:46.954Z,12.32
2023-03-14T03:29:52.506Z,12.23
2023-03-14T03:32:58.563Z,12.57
2023-03-14T03:36:04.766Z,12.95
2023-03-14T03:39:14.821Z,12.32
2023-03-14T03:42:20.612Z,12.25
2023-03-14T03:45:26.136Z,12.52
2023-03-14T03:48:36.313Z,12.95
2023-03-14T03:51:44.237Z,12.15
2023-03-14T03:54:50.208Z,13.13
2023-03-14T03:57:56.094Z,11.70
2023-03-14T04:01:01.972Z,11.40
2023-03-14T04:04:08.382Z,13.50
2023-03-14T04:07:15.295Z,12.88
2023-03-14T04:10:21.570Z,12.90
2023-03-14T04:13:41.228Z,11.30
2023-03-14T04:16:46.754Z,13.80
2023-03-14T04:19:55.389Z,12.55
2023-03-14T04:23:08.079Z,13.18
2023-03-14T04:26:13.694Z,12.27
2023-03-14T04:29:19.681Z,11.45
2023-03-14T04:32:26.216Z,11.68
2023-03-14T04:35:33.255Z,11.85
2023-03-14T04:41:51.087Z,11.77
2023-03-14T04:44:57.532Z,10.20
2023-03-14T04:48:05.525Z,10.57
2023-03-14T04:51:11.788Z,10.98
2023-03-14T04:54:17.060Z,10.20
2023-03-14T04:57:24.011Z,9.90
2023-03-14T05:00:30.333Z,10.20
2023-03-14T05:03:52.071Z,10.63
2023-03-14T05:07:12.642Z,11.65
2023-03-14T05:10:33.472Z,11.55
2023-03-14T05:14:08.816Z,10.10
2023-03-14T05:17:37.017Z,10.55
2023-03-14T05:21:07.749Z,9.25
2023-03-14T05:24:28.184Z,10.43
2023-03-14T05:27:46.812Z,10.13
2023-03-14T05:34:33.863Z,11.70
2023-03-14T05:38:02.185Z,10.38
2023-03-14T05:41:25.244Z,10.30
2023-03-14T05:44:55.027Z,10.65
2023-03-14T05:48:19.459Z,10.85
2023-03-14T05:51:44.796Z,10.50
2023-03-14T05:54:58.875Z,10.45
2023-03-14T05:58:08.205Z,10.82
2023-03-14T06:01:24.370Z,11.70
2023-03-14T06:04:43.994Z,10.32
2023-03-14T06:07:49.356Z,11.63
2023-03-14T06:10:55.510Z,11.00
2023-03-14T06:14:07.158Z,11.30
2023-03-14T06:17:13.681Z,10.80
2023-03-14T06:20:36.818Z,11.88
2023-03-14T06:23:42.196Z,13.35
2023-03-14T06:26:48.042Z,12.13
2023-03-14T06:29:53.598Z,12.00
2023-03-14T06:32:59.405Z,12.18
2023-03-14T06:36:07.026Z,12.80
2023-03-14T06:39:14.119Z,11.93
2023-03-14T06:42:23.555Z,12.07
2023-03-14T06:45:31.238Z,10.82
2023-03-14T06:48:39.195Z,11.90
2023-03-14T06:51:46.631Z,11.35
2023-03-14T06:54:52.777Z,12.30
2023-03-14T06:58:01.309Z,12.48
2023-03-14T07:01:16.827Z,12.48
2023-03-14T07:04:23.590Z,12.38
2023-03-14T07:07:29.567Z,13.10
2023-03-14T07:10:35.452Z,13.07
2023-03-14T07:13:41.070Z,13.05
2023-03-14T07:16:46.998Z,13.57
2023-03-14T07:19:53.128Z,12.38
2023-03-14T07:22:58.635Z,12.40
2023-03-14T07:26:15.300Z,11.63
2023-03-14T07:29:25.896Z,11.27
2023-03-14T07:32:32.516Z,12.73
2023-03-14T07:35:38.802Z,14.15
2023-03-14T07:38:45.102Z,14.07
2023-03-14T07:42:02.903Z,12.10
2023-03-14T07:45:28.429Z,11.85
2023-03-14T07:48:34.138Z,12.00
2023-03-14T07:51:39.300Z,12.77
2023-03-14T07:54:44.449Z,12.60
2023-03-14T07:57:49.663Z,12.32
2023-03-14T08:00:55.332Z,11.80
2023-03-14T08:04:01.251Z,11.90
2023-03-14T08:07:06.715Z,12.23
2023-03-14T08:10:14.347Z,11.20
2023-03-14T08:13:20.553Z,10.32
2023-03-14T08:16:25.970Z,11.73
2023-03-14T08:19:31.227Z,12.20
2023-03-14T08:22:36.343Z,13.18
2023-03-14T08:25:41.782Z,15.15
2023-03-14T08:28:47.433Z,11.60
2023-03-14T08:31:53.035Z,11.85
2023-03-14T08:34:58.939Z,12.60
2023-03-14T08:38:04.456Z,10.63
2023-03-14T08:41:09.985Z,11.13
2023-03-14T08:44:18.231Z,10.20
2023-03-14T08:47:25.970Z,10.40
2023-03-14T08:50:31.005Z,12.35
2023-03-14T08:53:36.270Z,10.65
2023-03-14T08:56:41.966Z,12.27
2023-03-14T08:59:46.858Z,10.73
2023-03-14T09:02:52.378Z,10.73
2023-03-14T09:06:03.963Z,10.60
2023-03-14T09:09:10.111Z,11.18
2023-03-14T09:12:15.424Z,11.00
2023-03-14T09:15:20.751Z,10.52
2023-03-14T09:18:26.184Z,12.82
2023-03-14T09:21:31.703Z,10.32
2023-03-14T09:24:37.102Z,10.38
2023-03-14T09:27:42.343Z,11.50
2023-03-14T09:30:47.728Z,10.60
2023-03-14T09:33:53.166Z,10.98
2023-03-14T09:36:58.607Z,12.95
2023-03-14T09:40:11.181Z,11.23
2023-03-14T09:43:17.784Z,10.20
2023-03-14T09:46:23.371Z,12.00
2023-03-14T09:49:35.757Z,10.60
2023-03-14T09:52:49.590Z,11.65
2023-03-14T09:55:56.589Z,11.45
2023-03-14T09:59:05.557Z,10.73
2023-03-14T10:02:19.528Z,10.90
2023-03-14T10:05:27.919Z,10.43
2023-03-14T10:08:33.265Z,10.10
2023-03-14T10:11:40.965Z,11.95
2023-03-14T10:14:53.515Z,10.57
2023-03-14T10:18:02.183Z,10.10
2023-03-14T10:21:09.055Z,9.65
2023-03-14T10:24:47.242Z,9.98
2023-03-14T10:27:52.257Z,10.25
2023-03-14T10:30:58.669Z,11.50
2023-03-14T10:34:06.200Z,12.43
2023-03-14T10:37:24.579Z,11.77
2023-03-14T10:40:34.350Z,9.38
2023-03-14T10:43:40.490Z,9.70
2023-03-14T10:46:46.495Z,8.80
2023-03-14T10:50:32.756Z,8.38
2023-03-14T10:53:48.229Z,8.50
2023-03-14T10:57:02.406Z,9.43
2023-03-14T11:00:23.270Z,8.75
2023-03-14T11:03:33.462Z,8.93
2023-03-14T11:07:07.468Z,8.32
2023-03-14T11:10:27.916Z,7.90
2023-03-14T11:14:08.911Z,8.38
2023-03-14T11:17:36.320Z,7.15
2023-03-14T11:20:50.972Z,7.45
2023-03-14T11:24:01.791Z,7.30
2023-03-14T11:27:24.889Z,8.10
2023-03-14T11:30:56.039Z,7.95
2023-03-14T11:34:27.530Z,6.90
2023-03-14T11:37:41.647Z,7.45
2023-03-14T11:40:51.354Z,8.68
2023-03-14T11:43:59.288Z,7.97
2023-03-14T11:47:33.037Z,7.90
2023-03-14T11:50:43.006Z,7.47
2023-03-14T11:54:18.430Z,8.70
2023-03-14T11:57:24.343Z,7.75
2023-03-14T12:00:31.904Z,8.90
2023-03-14T12:04:02.191Z,8.65
2023-03-14T12:07:26.309Z,7.90
2023-03-14T12:10:51.444Z,8.98
2023-03-14T12:13:57.440Z,9.43
2023-03-14T12:17:20.607Z,8.25
2023-03-14T12:20:27.660Z,6.95
2023-03-14T12:23:55.564Z,8.18
2023-03-14T12:27:03.873Z,7.60
2023-03-14T12:30:35.408Z,7.60
2023-03-14T12:33:40.823Z,7.78
2023-03-14T12:36:52.483Z,7.82
2023-03-14T12:40:18.871Z,7.93
2023-03-14T12:43:34.494Z,7.22
2023-03-14T12:46:40.249Z,5.78
2023-03-14T12:49:50.116Z,6.00
2023-03-14T12:52:55.583Z,5.38
2023-03-14T12:56:19.682Z,6.78
2023-03-14T12:59:53.022Z,6.15
2023-03-14T13:03:15.125Z,6.18
2023-03-14T13:06:52.494Z,5.72
2023-03-14T13:10:21.504Z,6.43
2023-03-14T13:13:28.949Z,5.80
2023-03-14T13:16:37.700Z,6.20
2023-03-14T13:19:45.039Z,5.95
2023-03-14T13:22:51.818Z,5.68
2023-03-14T13:25:58.388Z,6.25
2023-03-14T13:29:33.204Z,5.47
2023-03-14T13:32:45.422Z,7.90
2023-03-14T13:39:03.929Z,8.60
2023-03-14T13:42:16.464Z,7.55
2023-03-14T13:45:23.687Z,7.38
2023-03-14T13:48:31.842Z,9.60
2023-03-14T13:51:40.785Z,7.97
2023-03-14T13:54:46.297Z,7.13
2023-03-14T13:57:58.251Z,7.97
2023-03-14T14:01:11.529Z,7.22
2023-03-14T14:04:23.313Z,7.25
2023-03-14T14:07:32.922Z,6.25
2023-03-14T14:10:39.593Z,6.60
2023-03-14T14:13:45.235Z,7.18
2023-03-14T14:16:53.574Z,6.93
2023-03-14T14:20:00.737Z,7.47
2023-03-14T14:23:12.135Z,6.57
2023-03-14T14:26:20.228Z,5.97
2023-03-14T14:29:30.482Z,5.85
2023-03-14T14:32:40.624Z,6.53
2023-03-14T14:35:54.474Z,6.50
2023-03-14T14:39:06.354Z,5.47
2023-03-14T14:42:25.029Z,5.28
2023-03-14T14:45:31.052Z,5.38
2023-03-14T14:48:39.987Z,5.00
2023-03-14T14:51:50.632Z,4.88
2023-03-14T14:55:01.017Z,5.00
2023-03-14T14:58:28.321Z,5.03
2023-03-14T15:01:38.844Z,5.25
2023-03-14T15:04:44.214Z,4.82
2023-03-14T15:07:49.971Z,4.75
2023-03-14T15:10:56.817Z,4.70
2023-03-14T15:14:02.596Z,4.50
2023-03-14T15:17:13.373Z,4.63
2023-03-14T15:20:20.510Z,4.53
2023-03-14T15:23:26.241Z,4.93
2023-03-14T15:26:32.003Z,4.30
2023-03-14T15:29:39.228Z,5.07
2023-03-14T15:32:44.643Z,7.13
2023-03-14T15:35:50.796Z,5.50
2023-03-14T15:38:57.082Z,5.80
2023-03-14T15:42:02.629Z,6.30
2023-03-14T15:45:08.719Z,6.35
2023-03-14T15:48:19.379Z,6.60
2023-03-14T15:51:24.676Z,6.50
2023-03-14T15:54:30.387Z,7.57
2023-03-14T15:57:35.685Z,7.70
2023-03-14T16:00:40.962Z,6.95
2023-03-14T16:03:46.818Z,7.40
2023-03-14T16:06:51.916Z,7.75
2023-03-14T16:09:57.431Z,7.90
2023-03-14T16:13:03.790Z,8.10
2023-03-14T16:16:09.910Z,8.43
2023-03-14T16:19:14.968Z,8.60
2023-03-14T16:22:20.447Z,8.40
2023-03-14T16:25:25.761Z,9.27
2023-03-14T16:28:31.024Z,10.18
2023-03-14T16:31:43.693Z,8.93
2023-03-14T16:34:49.109Z,9.43
2023-03-14T16:37:54.424Z,8.50
2023-03-14T16:41:05.317Z,8.75
2023-03-14T16:44:10.829Z,8.90
2023-03-14T16:47:16.725Z,8.68
2023-03-14T16:50:21.977Z,9.25
2023-03-14T16:53:29.292Z,9.57
2023-03-14T16:56:34.774Z,8.57
2023-03-14T16:59:40.322Z,9.20
2023-03-14T17:02:45.466Z,6.47
2023-03-14T17:05:53.060Z,6.40
2023-03-14T17:08:59.466Z,4.93
2023-03-14T17:12:06.215Z,5.88
2023-03-14T17:15:12.246Z,5.18
2023-03-14T17:18:17.166Z,5.20
2023-03-14T17:21:23.086Z,5.13
2023-03-14T17:24:28.888Z,5.47
2023-03-14T17:27:36.299Z,5.70
2023-03-14T17:30:41.364Z,5.55
2023-03-14T17:33:46.946Z,6.38
2023-03-14T17:36:52.599Z,5.00
2023-03-14T17:40:01.866Z,5.53
2023-03-14T17:43:07.141Z,5.75
2023-03-14T17:46:18.004Z,7.60
2023-03-14T17:49:23.701Z,8.00
2023-03-14T17:52:29.243Z,7.88
2023-03-14T17:55:34.741Z,6.35
2023-03-14T17:58:44.173Z,8.25
2023-03-14T18:01:50.019Z,8.50
2023-03-14T18:04:55.577Z,7.75
2023-03-14T18:08:00.974Z,9.27
2023-03-14T18:11:07.399Z,8.38
2023-03-14T18:14:16.271Z,8.38
2023-03-14T18:17:21.590Z,10.85
2023-03-14T18:20:26.732Z,9.77
2023-03-14T18:23:32.276Z,10.23
2023-03-14T18:26:38.140Z,9.73
2023-03-14T18:29:44.024Z,10.73
2023-03-14T18:32:49.346Z,14.57
2023-03-14T18:35:54.978Z,12.32
2023-03-14T18:39:01.081Z,9.98
2023-03-14T18:42:06.464Z,11.30
2023-03-14T18:45:13.355Z,11.85
2023-03-14T18:48:18.626Z,10.93
2023-03-14T18:51:26.603Z,9.93
2023-03-14T18:54:32.303Z,10.40
2023-03-14T18:57:37.489Z,9.70
2023-03-14T19:00:42.811Z,9.85
2023-03-14T19:03:49.046Z,10.23
2023-03-14T19:06:54.308Z,10.13
2023-03-14T19:10:00.334Z,9.00
2023-03-14T19:13:05.979Z,9.65
2023-03-14T19:16:14.322Z,12.43
2023-03-14T19:19:19.635Z,11.95
2023-03-14T19:22:25.180Z,10.32
2023-03-14T19:25:30.703Z,12.15
2023-03-14T19:28:36.528Z,12.02
2023-03-14T19:31:42.130Z,12.40
2023-03-14T19:34:47.733Z,12.68
2023-03-14T19:37:53.124Z,13.07
2023-03-14T19:40:59.792Z,11.95
2023-03-14T19:44:05.494Z,14.32
2023-03-14T19:47:11.354Z,15.30
2023-03-14T19:50:17.850Z,13.90
2023-03-14T19:53:23.441Z,11.32
2023-03-14T19:56:29.490Z,9.82
2023-03-14T19:59:35.532Z,11.07
2023-03-14T20:02:42.188Z,10.50
2023-03-14T20:05:48.212Z,11.65
2023-03-14T20:08:53.784Z,10.65
2023-03-14T20:11:59.345Z,12.85
2023-03-14T20:15:05.275Z,10.65
2023-03-14T20:18:10.898Z,11.00
2023-03-14T20:21:16.994Z,11.63
2023-03-14T20:24:22.851Z,12.10
2023-03-14T20:27:30.086Z,11.80
2023-03-14T20:30:37.426Z,13.73
2023-03-14T20:33:43.312Z,14.52
2023-03-14T20:36:49.076Z,13.10
2023-03-14T20:39:55.863Z,9.00
2023-03-14T20:43:03.651Z,2.75
2023-03-14T20:46:10.150Z,1.30
2023-03-14T20:49:16.644Z,3.05
2023-03-14T20:52:23.614Z,4.72
2023-03-14T20:55:29.768Z,6.00
2023-03-14T20:58:36.325Z,7.03
2023-03-14T21:05:06.572Z,7.80
2023-03-14T21:08:13.002Z,7.93
2023-03-14T21:11:23.890Z,7.80
2023-03-14T21:14:30.152Z,7.95
2023-03-14T21:17:38.444Z,7.75
2023-03-14T21:20:46.096Z,7.72
2023-03-14T21:23:54.649Z,7.70
2023-03-14T21:27:00.747Z,8.55
2023-03-14T21:30:07.368Z,7.82
2023-03-14T21:33:14.375Z,7.75
2023-03-14T21:36:20.696Z,8.40
2023-03-14T21:39:25.893Z,8.40
2023-03-14T21:42:32.740Z,9.32
2023-03-14T21:45:37.969Z,9.27
2023-03-14T21:48:44.242Z,9.35
2023-03-14T21:51:49.693Z,9.02
2023-03-14T21:54:54.783Z,8.90
2023-03-14T21:58:02.824Z,6.80
2023-03-14T22:01:10.436Z,5.15
2023-03-14T22:04:15.797Z,4.88
2023-03-14T22:07:21.597Z,4.60
2023-03-14T22:10:27.172Z,4.47
2023-03-14T22:13:32.737Z,3.05
2023-03-14T22:16:38.163Z,3.20
2023-03-14T22:19:43.969Z,2.40
2023-03-14T22:22:49.220Z,2.60
2023-03-14T22:25:54.739Z,2.25
2023-03-14T22:29:00.585Z,2.22
2023-03-14T22:32:07.207Z,2.05
2023-03-14T22:35:12.721Z,1.70
2023-03-14T22:38:18.355Z,2.00
2023-03-14T22:41:24.023Z,2.17
2023-03-14T22:44:33.149Z,2.25
2023-03-14T22:47:38.611Z,3.03
2023-03-14T22:50:43.983Z,3.75
2023-03-14T22:53:50.142Z,4.30
2023-03-14T22:56:56.032Z,5.45
2023-03-14T23:00:01.592Z,4.95
2023-03-14T23:03:07.250Z,5.82
2023-03-14T23:06:12.605Z,6.10
2023-03-14T23:09:18.657Z,5.85
2023-03-14T23:12:24.376Z,5.63
2023-03-14T23:15:29.888Z,6.15
2023-03-14T23:18:36.340Z,5.72
2023-03-14T23:21:42.710Z,6.10
2023-03-14T23:24:49.075Z,6.05
2023-03-14T23:27:55.197Z,7.22
2023-03-14T23:31:01.937Z,8.18
2023-03-14T23:34:08.580Z,7.47
2023-03-14T23:37:14.419Z,7.38
2023-03-14T23:40:20.437Z,6.85
2023-03-14T23:43:26.010Z,8.32
2023-03-14T23:46:31.848Z,8.98
2023-03-14T23:49:37.158Z,10.20
2023-03-14T23:52:42.746Z,12.48
2023-03-14T23:55:48.684Z,9.45
2023-03-14T23:58:54.472Z,9.45
